sensor_id;sensor_type;location;lat;lon;timestamp;pressure;altitude;pressure_sealevel;temperature;humidity
10510;BME280;5303;53.266;10.410;2023-11-19T00:01:25;100792.00;;;5.02;100.00
10510;BME280;5303;53.266;10.410;2023-11-19T00:03:51;100779.81;;;5.02;100.00
10510;BME280;5303;53.266;10.410;2023-11-19T00:06:16;100771.84;;;4.98;100.00
10510;BME280;5303;53.266;10.410;2023-11-19T00:08:42;100770.19;;;5.01;100.00
10510;BME280;5303;53.266;10.410;2023-11-19T00:11:08;100747.47;;;4.99;100.00
10510;BME280;5303;53.266;10.410;2023-11-19T00:13:33;100729.19;;;5.00;100.00
10510;BME280;5303;53.266;10.410;2023-11-19T00:15:59;100731.06;;;5.07;100.00
10510;BME280;5303;53.266;10.410;2023-11-19T00:18:24;100736.28;;;5.06;100.00
10510;BME280;5303;53.266;10.410;2023-11-19T00:20:49;100742.38;;;5.06;100.00
10510;BME280;5303;53.266;10.410;2023-11-19T00:23:14;100721.34;;;5.00;100.00
10510;BME280;5303;53.266;10.410;2023-11-19T00:25:40;100700.38;;;4.96;100.00
10510;BME280;5303;53.266;10.410;2023-11-19T00:28:05;100697.00;;;5.01;100.00
10510;BME280;5303;53.266;10.410;2023-11-19T00:30:31;100703.97;;;5.02;100.00
10510;BME280;5303;53.266;10.410;2023-11-19T00:32:56;100699.72;;;5.09;100.00
10510;BME280;5303;53.266;10.410;2023-11-19T00:35:21;100694.44;;;5.06;100.00
10510;BME280;5303;53.266;10.410;2023-11-19T00:37:47;100681.41;;;5.07;100.00
10510;BME280;5303;53.266;10.410;2023-11-19T00:40:13;100669.16;;;5.03;100.00
10510;BME280;5303;53.266;10.410;2023-11-19T00:42:40;100652.63;;;5.07;100.00
10510;BME280;5303;53.266;10.410;2023-11-19T00:45:06;100651.75;;;5.05;100.00
10510;BME280;5303;53.266;10.410;2023-11-19T00:47:34;100643.19;;;5.15;100.00
10510;BME280;5303;53.266;10.410;2023-11-19T00:50:00;100650.34;;;5.27;100.00
10510;BME280;5303;53.266;10.410;2023-11-19T00:52:25;100638.00;;;5.18;100.00
10510;BME280;5303;53.266;10.410;2023-11-19T00:54:51;100633.50;;;5.10;100.00
10510;BME280;5303;53.266;10.410;2023-11-19T00:57:16;100627.47;;;5.12;100.00
10510;BME280;5303;53.266;10.410;2023-11-19T00:59:42;100630.94;;;5.11;100.00
10510;BME280;5303;53.266;10.410;2023-11-19T01:02:07;100626.50;;;5.09;100.00
10510;BME280;5303;53.266;10.410;2023-11-19T01:04:36;100619.50;;;5.06;100.00
10510;BME280;5303;53.266;10.410;2023-11-19T01:07:02;100624.06;;;5.18;100.00
10510;BME280;5303;53.266;10.410;2023-11-19T01:09:34;100622.22;;;5.12;100.00
10510;BME280;5303;53.266;10.410;2023-11-19T01:12:03;100607.34;;;5.10;100.00
10510;BME280;5303;53.266;10.410;2023-11-19T01:14:29;100583.94;;;5.17;100.00
10510;BME280;5303;53.266;10.410;2023-11-19T01:16:54;100595.34;;;5.21;100.00
10510;BME280;5303;53.266;10.410;2023-11-19T01:19:21;100589.13;;;5.13;100.00
10510;BME280;5303;53.266;10.410;2023-11-19T01:21:47;100577.09;;;5.26;100.00
10510;BME280;5303;53.266;10.410;2023-11-19T01:24:12;100570.09;;;5.22;100.00
10510;BME280;5303;53.266;10.410;2023-11-19T01:26:39;100563.00;;;5.14;100.00
10510;BME280;5303;53.266;10.410;2023-11-19T01:29:10;100562.19;;;5.20;100.00
10510;BME280;5303;53.266;10.410;2023-11-19T01:31:35;100550.91;;;5.21;100.00
10510;BME280;5303;53.266;10.410;2023-11-19T01:34:02;100543.84;;;5.15;100.00
10510;BME280;5303;53.266;10.410;2023-11-19T01:36:27;100540.31;;;5.13;100.00
10510;BME280;5303;53.266;10.410;2023-11-19T01:38:53;100529.00;;;5.14;100.00
10510;BME280;5303;53.266;10.410;2023-11-19T01:41:18;100521.28;;;5.24;100.00
10510;BME280;5303;53.266;10.410;2023-11-19T01:43:43;100520.41;;;5.23;100.00
10510;BME280;5303;53.266;10.410;2023-11-19T01:46:12;100514.38;;;5.29;100.00
10510;BME280;5303;53.266;10.410;2023-11-19T01:48:42;100497.78;;;5.27;100.00
10510;BME280;5303;53.266;10.410;2023-11-19T01:51:09;100498.63;;;5.23;100.00
10510;BME280;5303;53.266;10.410;2023-11-19T01:53:36;100493.38;;;5.23;100.00
10510;BME280;5303;53.266;10.410;2023-11-19T01:56:04;100499.50;;;5.25;100.00
10510;BME280;5303;53.266;10.410;2023-11-19T01:58:30;100494.28;;;5.26;100.00
10510;BME280;5303;53.266;10.410;2023-11-19T02:00:56;100481.31;;;5.34;100.00
10510;BME280;5303;53.266;10.410;2023-11-19T02:03:22;100484.81;;;5.34;100.00
10510;BME280;5303;53.266;10.410;2023-11-19T02:05:51;100480.47;;;5.35;100.00
10510;BME280;5303;53.266;10.410;2023-11-19T02:08:18;100464.69;;;5.29;100.00
10510;BME280;5303;53.266;10.410;2023-11-19T02:10:44;100455.22;;;5.40;100.00
10510;BME280;5303;53.266;10.410;2023-11-19T02:13:10;100453.34;;;5.30;100.00
10510;BME280;5303;53.266;10.410;2023-11-19T02:15:35;100453.41;;;5.33;100.00
10510;BME280;5303;53.266;10.410;2023-11-19T02:18:20;100444.75;;;5.40;100.00
10510;BME280;5303;53.266;10.410;2023-11-19T02:20:48;100449.94;;;5.34;100.00
10510;BME280;5303;53.266;10.410;2023-11-19T02:23:14;100438.63;;;5.35;100.00
10510;BME280;5303;53.266;10.410;2023-11-19T02:25:40;100438.63;;;5.35;100.00
10510;BME280;5303;53.266;10.410;2023-11-19T02:28:05;100440.38;;;5.36;100.00
10510;BME280;5303;53.266;10.410;2023-11-19T02:30:31;100435.03;;;5.30;100.00
10510;BME280;5303;53.266;10.410;2023-11-19T02:32:57;100433.28;;;5.27;100.00
10510;BME280;5303;53.266;10.410;2023-11-19T02:35:27;100413.25;;;5.28;100.00
10510;BME280;5303;53.266;10.410;2023-11-19T02:37:54;100420.31;;;5.35;100.00
10510;BME280;5303;53.266;10.410;2023-11-19T02:40:19;100409.00;;;5.39;100.00
10510;BME280;5303;53.266;10.410;2023-11-19T02:42:45;100397.66;;;5.35;100.00
10510;BME280;5303;53.266;10.410;2023-11-19T02:45:10;100389.81;;;5.38;100.00
10510;BME280;5303;53.266;10.410;2023-11-19T02:47:39;100381.94;;;5.35;100.00
10510;BME280;5303;53.266;10.410;2023-11-19T02:50:04;100371.47;;;5.34;100.00
10510;BME280;5303;53.266;10.410;2023-11-19T02:52:32;100352.31;;;5.38;100.00
10510;BME280;5303;53.266;10.410;2023-11-19T02:55:02;100349.78;;;5.42;100.00
10510;BME280;5303;53.266;10.410;2023-11-19T02:57:31;100339.34;;;5.45;100.00
10510;BME280;5303;53.266;10.410;2023-11-19T02:59:57;100334.09;;;5.45;100.00
10510;BME280;5303;53.266;10.410;2023-11-19T03:02:23;100329.81;;;5.52;100.00
10510;BME280;5303;53.266;10.410;2023-11-19T03:04:51;100333.41;;;5.65;100.00
10510;BME280;5303;53.266;10.410;2023-11-19T03:07:16;100319.38;;;5.58;100.00
10510;BME280;5303;53.266;10.410;2023-11-19T03:09:42;100313.25;;;5.55;100.00
10510;BME280;5303;53.266;10.410;2023-11-19T03:12:09;100313.34;;;5.64;100.00
10510;BME280;5303;53.266;10.410;2023-11-19T03:14:34;100315.19;;;5.74;100.00
10510;BME280;5303;53.266;10.410;2023-11-19T03:17:00;100309.00;;;5.67;100.00
10510;BME280;5303;53.266;10.410;2023-11-19T03:19:25;100303.75;;;5.64;100.00
10510;BME280;5303;53.266;10.410;2023-11-19T03:21:52;100291.56;;;5.66;100.00
10510;BME280;5303;53.266;10.410;2023-11-19T03:24:17;100286.34;;;5.69;100.00
10510;BME280;5303;53.266;10.410;2023-11-19T03:26:42;100289.00;;;5.74;100.00
10510;BME280;5303;53.266;10.410;2023-11-19T03:29:08;100274.13;;;5.71;100.00
10510;BME280;5303;53.266;10.410;2023-11-19T03:31:33;100288.13;;;5.73;100.00
10510;BME280;5303;53.266;10.410;2023-11-19T03:33:58;100275.00;;;5.67;100.00
10510;BME280;5303;53.266;10.410;2023-11-19T03:36:23;100274.13;;;5.65;100.00
10510;BME280;5303;53.266;10.410;2023-11-19T03:38:49;100275.94;;;5.77;100.00
10510;BME280;5303;53.266;10.410;2023-11-19T03:41:14;100264.59;;;5.78;100.00
10510;BME280;5303;53.266;10.410;2023-11-19T03:43:40;100265.44;;;5.72;100.00
10510;BME280;5303;53.266;10.410;2023-11-19T03:46:18;100256.75;;;5.73;100.00
10510;BME280;5303;53.266;10.410;2023-11-19T03:48:44;100247.97;;;5.71;100.00
10510;BME280;5303;53.266;10.410;2023-11-19T03:51:11;100250.63;;;5.73;100.00
10510;BME280;5303;53.266;10.410;2023-11-19T03:53:41;100244.53;;;5.75;100.00
10510;BME280;5303;53.266;10.410;2023-11-19T03:56:07;100239.28;;;5.75;100.00
10510;BME280;5303;53.266;10.410;2023-11-19T03:58:34;100238.47;;;5.83;100.00
10510;BME280;5303;53.266;10.410;2023-11-19T04:00:59;100245.41;;;5.77;100.00
10510;BME280;5303;53.266;10.410;2023-11-19T04:03:25;100237.56;;;5.81;100.00
10510;BME280;5303;53.266;10.410;2023-11-19T04:05:50;100237.56;;;5.81;100.00
10510;BME280;5303;53.266;10.410;2023-11-19T04:08:16;100233.34;;;5.93;100.00
10510;BME280;5303;53.266;10.410;2023-11-19T04:10:41;100244.66;;;5.91;100.00
10510;BME280;5303;53.266;10.410;2023-11-19T04:13:06;100242.09;;;5.98;100.00
10510;BME280;5303;53.266;10.410;2023-11-19T04:15:31;100232.56;;;6.08;100.00
10510;BME280;5303;53.266;10.410;2023-11-19T04:17:57;100228.19;;;6.09;100.00
10510;BME280;5303;53.266;10.410;2023-11-19T04:20:22;100225.56;;;6.07;100.00
10510;BME280;5303;53.266;10.410;2023-11-19T04:22:50;100236.09;;;6.16;100.00
10510;BME280;5303;53.266;10.410;2023-11-19T04:25:16;100225.63;;;6.13;100.00
10510;BME280;5303;53.266;10.410;2023-11-19T04:27:42;100217.78;;;6.21;100.00
10510;BME280;5303;53.266;10.410;2023-11-19T04:30:07;100209.91;;;6.22;100.00
10510;BME280;5303;53.266;10.410;2023-11-19T04:32:35;100202.06;;;6.19;100.00
10510;BME280;5303;53.266;10.410;2023-11-19T04:35:00;100190.72;;;6.20;100.00
10510;BME280;5303;53.266;10.410;2023-11-19T04:37:25;100195.13;;;6.26;100.00
10510;BME280;5303;53.266;10.410;2023-11-19T04:39:51;100184.66;;;6.32;100.00
10510;BME280;5303;53.266;10.410;2023-11-19T04:42:16;100183.78;;;6.31;100.00
10510;BME280;5303;53.266;10.410;2023-11-19T04:44:43;100183.81;;;6.34;100.00
10510;BME280;5303;53.266;10.410;2023-11-19T04:47:08;100185.56;;;6.34;100.00
10510;BME280;5303;53.266;10.410;2023-11-19T04:49:33;100197.78;;;6.35;100.00
10510;BME280;5303;53.266;10.410;2023-11-19T04:51:58;100190.78;;;6.39;100.00
10510;BME280;5303;53.266;10.410;2023-11-19T04:54:24;100186.44;;;6.39;100.00
10510;BME280;5303;53.266;10.410;2023-11-19T04:56:49;100175.06;;;6.42;100.00
10510;BME280;5303;53.266;10.410;2023-11-19T04:59:15;100188.19;;;6.42;100.00
10510;BME280;5303;53.266;10.410;2023-11-19T05:01:40;100184.69;;;6.43;100.00
10510;BME280;5303;53.266;10.410;2023-11-19T05:04:07;100184.72;;;6.46;100.00
10510;BME280;5303;53.266;10.410;2023-11-19T05:06:32;100183.88;;;6.56;100.00
10510;BME280;5303;53.266;10.410;2023-11-19T05:08:59;100178.63;;;6.62;100.00
10510;BME280;5303;53.266;10.410;2023-11-19T05:11:30;100172.53;;;6.63;100.00
10510;BME280;5303;53.266;10.410;2023-11-19T05:13:55;100171.69;;;6.67;100.00
10510;BME280;5303;53.266;10.410;2023-11-19T05:16:20;100176.91;;;6.72;100.00
10510;BME280;5303;53.266;10.410;2023-11-19T05:18:46;100177.78;;;6.74;100.00
10510;BME280;5303;53.266;10.410;2023-11-19T05:21:12;100160.31;;;6.74;100.00
10510;BME280;5303;53.266;10.410;2023-11-19T05:23:37;100166.44;;;6.79;100.00
10510;BME280;5303;53.266;10.410;2023-11-19T05:26:04;100165.56;;;6.82;100.00
10510;BME280;5303;53.266;10.410;2023-11-19T05:28:30;100161.22;;;6.85;100.00
10510;BME280;5303;53.266;10.410;2023-11-19T05:30:55;100161.22;;;6.91;100.00
10510;BME280;5303;53.266;10.410;2023-11-19T05:33:21;100164.75;;;6.97;100.00
10510;BME280;5303;53.266;10.410;2023-11-19T05:35:46;100165.59;;;7.00;100.00
10510;BME280;5303;53.266;10.410;2023-11-19T05:38:11;100161.25;;;7.07;100.00
10510;BME280;5303;53.266;10.410;2023-11-19T05:40:37;100156.88;;;7.13;100.00
10510;BME280;5303;53.266;10.410;2023-11-19T05:43:04;100151.63;;;7.19;100.00
10510;BME280;5303;53.266;10.410;2023-11-19T05:45:29;100160.38;;;7.25;100.00
10510;BME280;5303;53.266;10.410;2023-11-19T05:47:54;100154.25;;;7.30;100.00
10510;BME280;5303;53.266;10.410;2023-11-19T05:50:20;100152.50;;;7.37;100.00
10510;BME280;5303;53.266;10.410;2023-11-19T05:52:46;100149.00;;;7.42;100.00
10510;BME280;5303;53.266;10.410;2023-11-19T05:55:11;100141.09;;;7.45;100.00
10510;BME280;5303;53.266;10.410;2023-11-19T05:57:37;100140.22;;;7.53;100.00
10510;BME280;5303;53.266;10.410;2023-11-19T06:00:03;100136.75;;;7.57;100.00
10510;BME280;5303;53.266;10.410;2023-11-19T06:02:32;100129.72;;;7.56;100.00
10510;BME280;5303;53.266;10.410;2023-11-19T06:04:58;100136.72;;;7.54;100.00
10510;BME280;5303;53.266;10.410;2023-11-19T06:07:23;100134.97;;;7.59;100.00
10510;BME280;5303;53.266;10.410;2023-11-19T06:09:48;100138.47;;;7.59;100.00
10510;BME280;5303;53.266;10.410;2023-11-19T06:12:13;100139.34;;;7.61;100.00
10510;BME280;5303;53.266;10.410;2023-11-19T06:14:40;100134.97;;;7.62;100.00
10510;BME280;5303;53.266;10.410;2023-11-19T06:17:05;100140.19;;;7.65;100.00
10510;BME280;5303;53.266;10.410;2023-11-19T06:19:30;100145.44;;;7.65;100.00
10510;BME280;5303;53.266;10.410;2023-11-19T06:21:56;100147.22;;;7.63;100.00
10510;BME280;5303;53.266;10.410;2023-11-19T06:24:21;100141.09;;;7.67;100.00
10510;BME280;5303;53.266;10.410;2023-11-19T06:26:46;100145.47;;;7.68;100.00
10510;BME280;5303;53.266;10.410;2023-11-19T06:29:11;100140.19;;;7.74;100.00
10510;BME280;5303;53.266;10.410;2023-11-19T06:31:40;100124.44;;;7.77;100.00
10510;BME280;5303;53.266;10.410;2023-11-19T06:34:05;100129.69;;;7.80;100.00
10510;BME280;5303;53.266;10.410;2023-11-19T06:36:32;100124.41;;;7.83;100.00
10510;BME280;5303;53.266;10.410;2023-11-19T06:38:57;100123.53;;;7.90;100.00
10510;BME280;5303;53.266;10.410;2023-11-19T06:41:22;100134.00;;;7.93;100.00
10510;BME280;5303;53.266;10.410;2023-11-19T06:43:48;100128.75;;;7.93;100.00
10510;BME280;5303;53.266;10.410;2023-11-19T06:46:17;100107.72;;;7.95;100.00
10510;BME280;5303;53.266;10.410;2023-11-19T06:48:43;100126.13;;;7.99;100.00
10510;BME280;5303;53.266;10.410;2023-11-19T06:51:09;100133.97;;;8.05;100.00
10510;BME280;5303;53.266;10.410;2023-11-19T06:53:34;100135.72;;;8.09;100.00
10510;BME280;5303;53.266;10.410;2023-11-19T06:56:01;100142.59;;;8.33;100.00
10510;BME280;5303;53.266;10.410;2023-11-19T06:58:28;100147.75;;;8.61;100.00
10510;BME280;5303;53.266;10.410;2023-11-19T07:00:53;100144.16;;;8.74;100.00
10510;BME280;5303;53.266;10.410;2023-11-19T07:03:18;100143.22;;;8.89;100.00
10510;BME280;5303;53.266;10.410;2023-11-19T07:05:45;100146.63;;;8.97;100.00
10510;BME280;5303;53.266;10.410;2023-11-19T07:08:10;100142.75;;;9.44;100.00
10510;BME280;5303;53.266;10.410;2023-11-19T07:10:36;100139.22;;;9.45;100.00
10510;BME280;5303;53.266;10.410;2023-11-19T07:13:01;100140.94;;;9.47;100.00
10510;BME280;5303;53.266;10.410;2023-11-19T07:15:27;100140.88;;;9.55;100.00
10510;BME280;5303;53.266;10.410;2023-11-19T07:17:52;100139.06;;;9.60;100.00
10510;BME280;5303;53.266;10.410;2023-11-19T07:20:19;100146.03;;;9.67;100.00
10510;BME280;5303;53.266;10.410;2023-11-19T07:22:44;100143.34;;;9.70;100.00
10510;BME280;5303;53.266;10.410;2023-11-19T07:25:13;100139.84;;;9.73;100.00
10510;BME280;5303;53.266;10.410;2023-11-19T07:27:38;100130.94;;;9.83;100.00
10510;BME280;5303;53.266;10.410;2023-11-19T07:30:06;100146.69;;;9.88;100.00
10510;BME280;5303;53.266;10.410;2023-11-19T07:32:32;100144.00;;;9.94;100.00
10510;BME280;5303;53.266;10.410;2023-11-19T07:34:58;100138.69;;;9.97;100.00
10510;BME280;5303;53.266;10.410;2023-11-19T07:37:23;100147.47;;;9.97;100.00
10510;BME280;5303;53.266;10.410;2023-11-19T07:39:49;100144.88;;;9.93;100.00
10510;BME280;5303;53.266;10.410;2023-11-19T07:42:14;100140.38;;;10.01;100.00
10510;BME280;5303;53.266;10.410;2023-11-19T07:44:39;100149.94;;;10.09;100.00
10510;BME280;5303;53.266;10.410;2023-11-19T07:47:04;100142.91;;;10.13;100.00
10510;BME280;5303;53.266;10.410;2023-11-19T07:49:30;100150.00;;;10.06;100.00
10510;BME280;5303;53.266;10.410;2023-11-19T07:51:56;100149.00;;;10.17;100.00
10510;BME280;5303;53.266;10.410;2023-11-19T07:54:21;100155.16;;;10.16;100.00
10510;BME280;5303;53.266;10.410;2023-11-19T07:56:47;100157.72;;;10.20;100.00
10510;BME280;5303;53.266;10.410;2023-11-19T07:59:12;100162.09;;;10.21;100.00
10510;BME280;5303;53.266;10.410;2023-11-19T08:01:37;100161.19;;;10.28;100.00
10510;BME280;5303;53.266;10.410;2023-11-19T08:04:02;100164.47;;;10.47;100.00
10510;BME280;5303;53.266;10.410;2023-11-19T08:06:28;100170.47;;;10.57;100.00
10510;BME280;5303;53.266;10.410;2023-11-19T08:08:53;100163.69;;;10.39;100.00
10510;BME280;5303;53.266;10.410;2023-11-19T08:11:19;100173.06;;;10.60;100.00
10510;BME280;5303;53.266;10.410;2023-11-19T08:13:47;100175.69;;;10.61;100.00
10510;BME280;5303;53.266;10.410;2023-11-19T08:16:12;100176.41;;;10.74;100.00
10510;BME280;5303;53.266;10.410;2023-11-19T08:18:38;100181.47;;;10.89;100.00
10510;BME280;5303;53.266;10.410;2023-11-19T08:21:06;100182.03;;;11.10;100.00
10510;BME280;5303;53.266;10.410;2023-11-19T08:23:31;100181.09;;;11.14;100.00
10510;BME280;5303;53.266;10.410;2023-11-19T08:25:56;100173.31;;;11.06;100.00
10510;BME280;5303;53.266;10.410;2023-11-19T08:28:22;100176.66;;;11.16;100.00
10510;BME280;5303;53.266;10.410;2023-11-19T08:30:47;100178.41;;;11.17;100.00
10510;BME280;5303;53.266;10.410;2023-11-19T08:33:12;100169.75;;;11.07;100.00
10510;BME280;5303;53.266;10.410;2023-11-19T08:35:38;100174.13;;;11.10;100.00
10510;BME280;5303;53.266;10.410;2023-11-19T08:38:03;100179.25;;;11.19;100.00
10510;BME280;5303;53.266;10.410;2023-11-19T08:40:28;100180.38;;;11.03;100.00
10510;BME280;5303;53.266;10.410;2023-11-19T08:42:56;100177.44;;;11.21;100.00
10510;BME280;5303;53.266;10.410;2023-11-19T08:45:22;100173.19;;;11.12;100.00
10510;BME280;5303;53.266;10.410;2023-11-19T08:47:47;100170.38;;;11.23;100.00
10510;BME280;5303;53.266;10.410;2023-11-19T08:50:13;100166.75;;;11.30;100.00
10510;BME280;5303;53.266;10.410;2023-11-19T08:52:38;100172.19;;;11.21;100.00
10510;BME280;5303;53.266;10.410;2023-11-19T08:55:04;100175.22;;;10.95;100.00
10510;BME280;5303;53.266;10.410;2023-11-19T08:57:31;100176.84;;;11.02;100.00
10510;BME280;5303;53.266;10.410;2023-11-19T08:59:56;100182.16;;;11.04;100.00
10510;BME280;5303;53.266;10.410;2023-11-19T09:02:21;100186.63;;;10.97;100.00
10510;BME280;5303;53.266;10.410;2023-11-19T09:04:47;100185.69;;;11.00;100.00
10510;BME280;5303;53.266;10.410;2023-11-19T09:07:12;100191.81;;;11.02;100.00
10510;BME280;5303;53.266;10.410;2023-11-19T09:09:37;100198.91;;;11.00;100.00
10510;BME280;5303;53.266;10.410;2023-11-19T09:12:03;100192.72;;;11.01;100.00
10510;BME280;5303;53.266;10.410;2023-11-19T09:14:31;100195.41;;;10.98;100.00
10510;BME280;5303;53.266;10.410;2023-11-19T09:16:57;100192.63;;;11.08;100.00
10510;BME280;5303;53.266;10.410;2023-11-19T09:19:23;100194.47;;;11.02;100.00
10510;BME280;5303;53.266;10.410;2023-11-19T09:21:48;100190.13;;;10.98;100.00
10510;BME280;5303;53.266;10.410;2023-11-19T09:24:14;100198.97;;;10.96;100.00
10510;BME280;5303;53.266;10.410;2023-11-19T09:26:40;100203.28;;;11.01;100.00
10510;BME280;5303;53.266;10.410;2023-11-19T09:29:07;100203.09;;;11.13;100.00
10510;BME280;5303;53.266;10.410;2023-11-19T09:31:32;100189.16;;;11.03;100.00
10510;BME280;5303;53.266;10.410;2023-11-19T09:33:58;100193.56;;;11.03;100.00
10510;BME280;5303;53.266;10.410;2023-11-19T09:36:23;100184.53;;;11.19;100.00
10510;BME280;5303;53.266;10.410;2023-11-19T09:38:48;100191.69;;;11.11;100.00
10510;BME280;5303;53.266;10.410;2023-11-19T09:41:14;100199.59;;;11.12;100.00
10510;BME280;5303;53.266;10.410;2023-11-19T09:43:41;100188.00;;;11.21;100.00
10510;BME280;5303;53.266;10.410;2023-11-19T09:46:09;100194.97;;;11.27;100.00
10510;BME280;5303;53.266;10.410;2023-11-19T09:48:37;100197.69;;;11.22;100.00
10510;BME280;5303;53.266;10.410;2023-11-19T09:51:04;100197.69;;;11.22;100.00
10510;BME280;5303;53.266;10.410;2023-11-19T09:53:30;100196.75;;;11.26;100.00
10510;BME280;5303;53.266;10.410;2023-11-19T09:55:56;100194.94;;;11.30;100.00
10510;BME280;5303;53.266;10.410;2023-11-19T09:58:21;100202.75;;;11.36;100.00
10510;BME280;5303;53.266;10.410;2023-11-19T10:00:48;100199.25;;;11.35;100.00
10510;BME280;5303;53.266;10.410;2023-11-19T10:03:13;100194.88;;;11.34;100.00
10510;BME280;5303;53.266;10.410;2023-11-19T10:05:39;100200.22;;;11.28;100.00
10510;BME280;5303;53.266;10.410;2023-11-19T10:08:05;100195.72;;;11.33;100.00
10510;BME280;5303;53.266;10.410;2023-11-19T10:10:31;100201.03;;;11.32;100.00
10510;BME280;5303;53.266;10.410;2023-11-19T10:12:56;100202.75;;;11.36;100.00
10510;BME280;5303;53.266;10.410;2023-11-19T10:15:23;100193.22;;;11.27;100.00
10510;BME280;5303;53.266;10.410;2023-11-19T10:17:50;100193.28;;;11.21;100.00
10510;BME280;5303;53.266;10.410;2023-11-19T10:20:16;100196.53;;;11.40;100.00
10510;BME280;5303;53.266;10.410;2023-11-19T10:22:41;100200.09;;;11.37;100.00
10510;BME280;5303;53.266;10.410;2023-11-19T10:25:23;100198.25;;;11.41;100.00
10510;BME280;5303;53.266;10.410;2023-11-19T10:27:50;100206.13;;;11.44;100.00
10510;BME280;5303;53.266;10.410;2023-11-19T10:30:23;100202.53;;;11.49;100.00
10510;BME280;5303;53.266;10.410;2023-11-19T10:35:53;100198.19;;;11.45;100.00
10510;BME280;5303;53.266;10.410;2023-11-19T10:38:19;100194.72;;;11.42;100.00
10510;BME280;5303;53.266;10.410;2023-11-19T10:40:44;100201.88;;;11.35;100.00
10510;BME280;5303;53.266;10.410;2023-11-19T10:43:10;100193.88;;;11.40;100.00
10510;BME280;5303;53.266;10.410;2023-11-19T10:45:36;100196.50;;;11.41;100.00
10510;BME280;5303;53.266;10.410;2023-11-19T10:48:04;100199.81;;;11.52;100.00
10510;BME280;5303;53.266;10.410;2023-11-19T10:50:38;100210.41;;;11.51;100.00
10510;BME280;5303;53.266;10.410;2023-11-19T10:53:05;100198.00;;;11.58;100.00
10510;BME280;5303;53.266;10.410;2023-11-19T10:55:36;100198.94;;;11.55;100.00
10510;BME280;5303;53.266;10.410;2023-11-19T10:58:05;100210.53;;;11.43;100.00
10510;BME280;5303;53.266;10.410;2023-11-19T11:00:52;100207.72;;;11.56;100.00
10510;BME280;5303;53.266;10.410;2023-11-19T11:03:24;100204.38;;;11.43;100.00
10510;BME280;5303;53.266;10.410;2023-11-19T11:05:51;100208.63;;;11.53;100.00
10510;BME280;5303;53.266;10.410;2023-11-19T11:08:18;100206.91;;;11.50;100.00
10510;BME280;5303;53.266;10.410;2023-11-19T11:10:56;100210.44;;;11.49;100.00
10510;BME280;5303;53.266;10.410;2023-11-19T11:13:23;100201.88;;;11.35;100.00
10510;BME280;5303;53.266;10.410;2023-11-19T11:15:50;100206.91;;;11.50;100.00
10510;BME280;5303;53.266;10.410;2023-11-19T11:18:16;100210.38;;;11.56;100.00
10510;BME280;5303;53.266;10.410;2023-11-19T11:20:44;100203.41;;;11.50;100.00
10510;BME280;5303;53.266;10.410;2023-11-19T11:23:29;100205.25;;;11.43;100.00
10510;BME280;5303;53.266;10.410;2023-11-19T11:26:20;100208.75;;;11.44;100.00
10510;BME280;5303;53.266;10.410;2023-11-19T11:34:07;100210.72;;;11.34;100.00
10510;BME280;5303;53.266;10.410;2023-11-19T11:39:33;100211.47;;;11.41;100.00
10510;BME280;5303;53.266;10.410;2023-11-19T11:47:22;100225.44;;;11.49;100.00
10510;BME280;5303;53.266;10.410;2023-11-19T11:49:49;100205.66;;;11.71;100.00
10510;BME280;5303;53.266;10.410;2023-11-19T11:52:16;100213.53;;;11.76;100.00
10510;BME280;5303;53.266;10.410;2023-11-19T11:54:42;100208.94;;;11.89;100.00
10510;BME280;5303;53.266;10.410;2023-11-19T11:57:14;100204.34;;;11.98;100.00
10510;BME280;5303;53.266;10.410;2023-11-19T12:02:09;100206.16;;;11.96;100.00
10510;BME280;5303;53.266;10.410;2023-11-19T12:04:35;100207.28;;;11.81;100.00
10510;BME280;5303;53.266;10.410;2023-11-19T12:07:16;100212.66;;;11.74;100.00
10510;BME280;5303;53.266;10.410;2023-11-19T12:09:53;100197.16;;;11.54;100.00
10510;BME280;5303;53.266;10.410;2023-11-19T12:12:27;100216.38;;;11.65;100.00
10510;BME280;5303;53.266;10.410;2023-11-19T12:20:03;100204.75;;;11.75;100.00
10510;BME280;5303;53.266;10.410;2023-11-19T12:22:30;100202.00;;;11.81;100.00
10510;BME280;5303;53.266;10.410;2023-11-19T12:24:56;100203.75;;;11.82;100.00
10510;BME280;5303;53.266;10.410;2023-11-19T12:27:21;100209.88;;;11.85;100.00
10510;BME280;5303;53.266;10.410;2023-11-19T12:29:51;100201.81;;;11.92;100.00
10510;BME280;5303;53.266;10.410;2023-11-19T12:32:17;100200.00;;;11.94;100.00
10510;BME280;5303;53.266;10.410;2023-11-19T12:34:42;100203.31;;;12.05;100.00
10510;BME280;5303;53.266;10.410;2023-11-19T12:37:07;100202.44;;;12.06;100.00
10510;BME280;5303;53.266;10.410;2023-11-19T12:39:34;100197.97;;;12.08;100.00
10510;BME280;5303;53.266;10.410;2023-11-19T12:42:00;100204.25;;;12.03;100.00
10510;BME280;5303;53.266;10.410;2023-11-19T12:44:26;100191.97;;;12.00;100.00
10510;BME280;5303;53.266;10.410;2023-11-19T12:47:04;100202.72;;;11.91;100.00
10510;BME280;5303;53.266;10.410;2023-11-19T12:49:32;100202.72;;;11.91;100.00
10510;BME280;5303;53.266;10.410;2023-11-19T12:51:57;100209.94;;;11.81;100.00
10510;BME280;5303;53.266;10.410;2023-11-19T12:54:35;100206.41;;;11.81;100.00
10510;BME280;5303;53.266;10.410;2023-11-19T12:57:02;100201.03;;;11.87;100.00
10510;BME280;5303;53.266;10.410;2023-11-19T12:59:27;100192.94;;;11.96;100.00
10510;BME280;5303;53.266;10.410;2023-11-19T13:01:59;100205.28;;;11.96;100.00
10510;BME280;5303;53.266;10.410;2023-11-19T13:04:29;100200.97;;;11.90;100.00
10510;BME280;5303;53.266;10.410;2023-11-19T13:06:56;100195.69;;;11.90;100.00